createdAt,value
2022-10-05T00:02:14.927Z,7.00
2022-10-05T00:04:52.098Z,7.00
2022-10-05T00:07:26.607Z,7.00
2022-10-05T00:10:02.046Z,6.70
2022-10-05T00:12:41.150Z,6.90
2022-10-05T00:15:42.402Z,6.70
2022-10-05T00:18:20.292Z,6.70
2022-10-05T00:20:54.774Z,6.80
2022-10-05T00:23:32.234Z,6.90
2022-10-05T00:26:16.868Z,6.90
2022-10-05T00:28:52.154Z,7.10
2022-10-05T00:31:33.201Z,6.90
2022-10-05T00:34:14.747Z,6.70
2022-10-05T00:36:57.367Z,6.90
2022-10-05T00:39:31.761Z,6.80
2022-10-05T00:42:23.862Z,6.90
2022-10-05T00:45:05.921Z,6.70
2022-10-05T00:47:55.852Z,6.60
2022-10-05T00:50:48.244Z,6.60
2022-10-05T00:53:40.022Z,6.50
2022-10-05T00:56:25.224Z,6.60
2022-10-05T00:59:08.072Z,6.50
2022-10-05T01:02:05.458Z,6.20
2022-10-05T01:04:48.315Z,6.20
2022-10-05T01:07:50.668Z,6.20
2022-10-05T01:10:32.979Z,6.60
2022-10-05T01:13:19.836Z,6.50
2022-10-05T01:16:00.190Z,6.30
2022-10-05T01:18:51.658Z,6.30
2022-10-05T01:21:34.518Z,6.10
2022-10-05T01:24:41.754Z,6.00
2022-10-05T01:27:42.685Z,6.30
2022-10-05T01:30:21.541Z,6.00
2022-10-05T01:33:03.417Z,6.10
2022-10-05T01:35:44.478Z,6.20
2022-10-05T01:38:27.502Z,6.10
2022-10-05T01:41:11.356Z,6.10
2022-10-05T01:43:50.221Z,6.10
2022-10-05T01:46:30.527Z,6.00
2022-10-05T01:49:33.033Z,5.90
2022-10-05T01:52:23.452Z,6.20
2022-10-05T01:55:05.655Z,6.30
2022-10-05T01:58:04.538Z,6.30
2022-10-05T02:01:04.469Z,5.80
2022-10-05T02:03:46.720Z,5.60
2022-10-05T02:06:23.449Z,5.40
2022-10-05T02:09:26.607Z,5.80
2022-10-05T02:12:08.724Z,5.60
2022-10-05T02:14:45.393Z,5.90
2022-10-05T02:17:40.735Z,5.60
2022-10-05T02:20:20.149Z,5.30
2022-10-05T02:22:56.500Z,5.60
2022-10-05T02:25:32.776Z,5.80
2022-10-05T02:28:09.609Z,5.80
2022-10-05T02:30:48.341Z,5.60
2022-10-05T02:33:32.647Z,5.50
2022-10-05T02:36:16.103Z,5.50
2022-10-05T02:39:03.036Z,5.30
2022-10-05T02:41:44.644Z,5.60
2022-10-05T02:44:35.113Z,5.40
2022-10-05T02:47:16.120Z,5.20
2022-10-05T02:49:54.787Z,5.10
2022-10-05T02:52:39.512Z,5.00
2022-10-05T02:55:20.064Z,5.40
2022-10-05T02:58:01.309Z,5.10
2022-10-05T03:00:41.788Z,5.30
2022-10-05T03:03:24.702Z,5.20
2022-10-05T03:06:04.042Z,5.50
2022-10-05T03:08:50.529Z,5.50
2022-10-05T03:11:42.861Z,5.40
2022-10-05T03:14:22.594Z,5.70
2022-10-05T03:17:09.592Z,5.50
2022-10-05T03:20:07.427Z,5.30
2022-10-05T03:22:53.848Z,5.20
2022-10-05T03:25:46.376Z,5.00
2022-10-05T03:28:37.073Z,5.00
2022-10-05T03:31:18.402Z,5.40
2022-10-05T03:34:03.801Z,5.00
2022-10-05T03:36:44.659Z,5.00
2022-10-05T03:39:45.112Z,5.20
2022-10-05T03:42:38.830Z,4.70
2022-10-05T03:45:25.817Z,4.70
2022-10-05T03:48:04.273Z,4.90
2022-10-05T03:50:47.805Z,5.00
2022-10-05T03:53:29.796Z,5.10
2022-10-05T03:56:14.735Z,4.80
2022-10-05T03:58:54.151Z,5.20
2022-10-05T04:01:50.157Z,5.00
2022-10-05T04:04:31.627Z,5.40
2022-10-05T04:07:11.980Z,5.10
2022-10-05T04:09:49.251Z,4.90
2022-10-05T04:12:29.726Z,5.00
2022-10-05T04:15:08.772Z,5.10
2022-10-05T04:17:52.634Z,5.20
2022-10-05T04:20:29.003Z,5.10
2022-10-05T04:23:09.768Z,4.90
2022-10-05T04:25:51.407Z,4.60
2022-10-05T04:28:50.351Z,5.20
2022-10-05T04:32:09.588Z,4.80
2022-10-05T04:34:58.368Z,5.00
2022-10-05T04:37:37.927Z,5.10
2022-10-05T04:40:20.972Z,4.70
2022-10-05T04:43:14.091Z,5.00
2022-10-05T04:46:16.607Z,4.80
2022-10-05T04:49:18.759Z,5.10
2022-10-05T04:51:56.627Z,5.20
2022-10-05T04:54:44.185Z,5.30
2022-10-05T04:57:51.020Z,4.80
2022-10-05T05:00:30.734Z,4.50
2022-10-05T05:03:28.161Z,5.10
2022-10-05T05:06:26.522Z,4.70
2022-10-05T05:09:28.953Z,4.30
2022-10-05T05:15:44.987Z,4.90
2022-10-05T05:19:00.392Z,4.90
2022-10-05T05:21:56.314Z,4.80
2022-10-05T05:24:48.084Z,4.70
2022-10-05T05:27:48.764Z,4.40
2022-10-05T05:30:25.826Z,4.80
2022-10-05T05:33:20.559Z,4.60
2022-10-05T05:39:30.128Z,4.30
2022-10-05T05:42:22.074Z,4.50
2022-10-05T05:44:58.708Z,4.80
2022-10-05T05:47:55.408Z,4.40
2022-10-05T05:50:41.363Z,4.50
2022-10-05T05:53:23.794Z,4.40
2022-10-05T05:56:19.979Z,4.40
2022-10-05T05:59:00.742Z,4.60
2022-10-05T06:01:44.377Z,4.60
2022-10-05T06:04:25.435Z,4.50
2022-10-05T06:07:03.615Z,4.40
2022-10-05T06:09:45.151Z,4.60
2022-10-05T06:12:37.172Z,4.60
2022-10-05T06:15:19.711Z,4.40
2022-10-05T06:17:57.328Z,4.50
2022-10-05T06:20:37.334Z,4.40
2022-10-05T06:26:15.715Z,4.60
2022-10-05T06:29:00.616Z,4.40
2022-10-05T06:31:58.779Z,5.00
2022-10-05T06:34:48.450Z,4.70
2022-10-05T06:37:32.384Z,4.80
2022-10-05T06:40:27.162Z,5.10
2022-10-05T06:43:18.581Z,5.40
2022-10-05T06:46:06.473Z,5.20
2022-10-05T06:48:52.655Z,5.40
2022-10-05T06:51:40.526Z,5.60
2022-10-05T06:54:25.580Z,5.30
2022-10-05T06:57:06.637Z,5.40
2022-10-05T06:59:55.461Z,5.50
2022-10-05T07:05:48.679Z,5.80
2022-10-05T07:08:33.990Z,5.80
2022-10-05T07:11:16.919Z,6.00
2022-10-05T07:14:16.249Z,6.20
2022-10-05T07:17:06.220Z,6.30
2022-10-05T07:19:55.124Z,6.40
2022-10-05T07:22:45.911Z,6.60
2022-10-05T07:25:23.097Z,6.70
2022-10-05T07:28:03.484Z,6.90
2022-10-05T07:30:43.118Z,7.10
2022-10-05T07:33:28.257Z,7.30
2022-10-05T07:36:27.910Z,7.30
2022-10-05T07:39:06.481Z,7.60
2022-10-05T07:41:46.633Z,7.80
2022-10-05T07:44:29.804Z,8.00
2022-10-05T07:47:10.686Z,8.10
2022-10-05T07:49:56.792Z,8.30
2022-10-05T07:52:36.025Z,8.50
2022-10-05T07:55:19.628Z,8.90
2022-10-05T07:58:07.588Z,8.90
2022-10-05T08:01:00.674Z,9.30
2022-10-05T08:03:44.582Z,9.90
2022-10-05T08:06:36.396Z,10.30
2022-10-05T08:09:35.481Z,10.50
2022-10-05T08:12:30.124Z,10.60
2022-10-05T08:15:10.661Z,10.80
2022-10-05T08:17:50.559Z,11.00
2022-10-05T08:20:32.046Z,11.20
2022-10-05T08:23:14.155Z,11.10
2022-10-05T08:25:56.907Z,11.20
2022-10-05T08:28:35.588Z,11.40
2022-10-05T08:31:16.990Z,11.60
2022-10-05T08:33:58.818Z,11.80
2022-10-05T08:36:46.734Z,11.60
2022-10-05T08:39:23.017Z,11.70
2022-10-05T08:42:12.519Z,11.60
2022-10-05T08:45:33.734Z,11.80
2022-10-05T08:48:27.525Z,12.00
2022-10-05T08:51:29.034Z,11.90
2022-10-05T08:54:20.719Z,12.20
2022-10-05T08:57:12.936Z,12.30
2022-10-05T09:00:05.066Z,12.30
2022-10-05T09:02:59.760Z,12.20
2022-10-05T09:06:28.646Z,12.40
2022-10-05T09:09:21.548Z,12.80
2022-10-05T09:12:06.495Z,12.70
2022-10-05T09:15:07.175Z,12.90
2022-10-05T09:18:07.376Z,13.00
2022-10-05T09:20:54.896Z,13.00
2022-10-05T09:23:40.881Z,12.80
2022-10-05T09:26:43.701Z,13.20
2022-10-05T09:29:45.309Z,13.40
2022-10-05T09:32:42.236Z,13.50
2022-10-05T09:35:33.923Z,13.30
2022-10-05T09:38:17.562Z,13.80
2022-10-05T09:41:18.623Z,14.40
2022-10-05T09:44:12.710Z,14.70
2022-10-05T09:47:29.924Z,14.90
2022-10-05T09:50:27.135Z,15.10
2022-10-05T09:53:08.737Z,15.20
2022-10-05T09:56:09.801Z,15.50
2022-10-05T09:59:19.620Z,15.20
2022-10-05T10:02:32.419Z,15.40
2022-10-05T10:05:20.521Z,15.90
2022-10-05T10:08:07.768Z,15.70
2022-10-05T10:10:54.655Z,16.00
2022-10-05T10:13:56.058Z,16.10
2022-10-05T10:16:54.805Z,15.30
2022-10-05T10:19:55.136Z,16.00
2022-10-05T10:23:11.059Z,16.40
2022-10-05T10:26:20.832Z,16.10
2022-10-05T10:29:31.927Z,16.60
2022-10-05T10:32:21.126Z,16.70
2022-10-05T10:35:09.783Z,16.70
2022-10-05T10:38:27.606Z,16.80
2022-10-05T10:41:33.584Z,16.90
2022-10-05T10:44:30.965Z,16.60
2022-10-05T10:47:23.962Z,17.00
2022-10-05T10:50:29.242Z,17.40
2022-10-05T10:53:12.470Z,17.50
2022-10-05T10:56:05.215Z,17.60
2022-10-05T10:58:53.440Z,17.50
2022-10-05T11:01:51.059Z,17.40
2022-10-05T11:04:44.837Z,17.80
2022-10-05T11:07:50.654Z,18.10
2022-10-05T11:10:55.989Z,18.30
2022-10-05T11:13:41.915Z,18.20
2022-10-05T11:16:52.399Z,18.50
2022-10-05T11:20:03.173Z,18.60
2022-10-05T11:23:19.398Z,18.50
2022-10-05T11:26:04.623Z,18.80
2022-10-05T11:28:59.765Z,19.30
2022-10-05T11:31:56.187Z,19.50
2022-10-05T11:34:54.650Z,19.20
2022-10-05T11:38:05.050Z,19.30
2022-10-05T11:41:17.462Z,19.70
2022-10-05T11:44:16.745Z,19.50
2022-10-05T11:47:10.772Z,19.10
2022-10-05T11:49:49.654Z,19.30
2022-10-05T11:52:37.077Z,19.50
2022-10-05T11:55:19.662Z,19.50
2022-10-05T11:58:03.978Z,19.50
2022-10-05T12:00:58.086Z,19.10
2022-10-05T12:03:42.526Z,19.00
2022-10-05T12:07:05.981Z,19.20
2022-10-05T12:10:20.550Z,19.40
2022-10-05T12:13:14.151Z,19.50
2022-10-05T12:16:09.864Z,19.30
2022-10-05T12:23:00.395Z,19.40
2022-10-05T12:25:41.291Z,19.30
2022-10-05T12:28:22.416Z,19.30
2022-10-05T12:31:22.477Z,19.20
2022-10-05T12:34:06.829Z,19.20
2022-10-05T12:37:13.117Z,19.40
2022-10-05T12:40:00.763Z,19.40
2022-10-05T12:42:51.405Z,19.50
2022-10-05T12:46:06.451Z,19.90
2022-10-05T12:49:00.800Z,19.80
2022-10-05T12:51:41.517Z,19.60
2022-10-05T12:54:40.768Z,19.60
2022-10-05T12:57:24.953Z,19.80
2022-10-05T13:00:06.045Z,19.50
2022-10-05T13:02:45.904Z,19.80
2022-10-05T13:05:27.861Z,19.90
2022-10-05T13:08:22.849Z,20.20
2022-10-05T13:11:43.206Z,20.30
2022-10-05T13:14:33.021Z,20.20
2022-10-05T13:17:19.920Z,19.70
2022-10-05T13:23:26.776Z,20.20
2022-10-05T13:30:03.029Z,19.90
2022-10-05T13:37:03.969Z,20.00
2022-10-05T13:39:53.117Z,20.00
2022-10-05T13:42:35.035Z,20.20
2022-10-05T13:45:15.487Z,20.50
2022-10-05T13:48:15.881Z,20.30
2022-10-05T13:50:55.938Z,20.50
2022-10-05T13:53:36.916Z,20.00
2022-10-05T13:56:22.699Z,20.20
2022-10-05T13:59:53.457Z,20.20
2022-10-05T14:02:57.612Z,20.20
2022-10-05T14:05:38.200Z,20.10
2022-10-05T14:08:48.139Z,20.10
2022-10-05T14:11:28.931Z,20.20
2022-10-05T14:14:06.316Z,20.20
2022-10-05T14:16:46.930Z,20.50
2022-10-05T14:19:28.828Z,20.40
2022-10-05T14:22:05.723Z,20.50
2022-10-05T14:24:57.394Z,20.40
2022-10-05T14:28:03.895Z,20.50
2022-10-05T14:30:39.931Z,20.10
2022-10-05T14:33:18.551Z,20.10
2022-10-05T14:35:57.644Z,20.20
2022-10-05T14:38:52.257Z,20.20
2022-10-05T14:41:48.231Z,20.00
2022-10-05T14:47:19.601Z,20.30
2022-10-05T14:50:31.339Z,20.20
2022-10-05T14:53:17.586Z,20.10
2022-10-05T14:56:25.431Z,20.20
2022-10-05T14:59:53.839Z,20.00
2022-10-05T15:02:59.752Z,19.90
2022-10-05T15:06:01.611Z,19.90
2022-10-05T15:08:48.186Z,20.10
2022-10-05T15:11:35.074Z,20.20
2022-10-05T15:14:16.659Z,20.00
2022-10-05T15:16:52.958Z,19.70
2022-10-05T15:19:36.300Z,19.60
2022-10-05T15:22:41.302Z,19.50
2022-10-05T15:25:23.139Z,19.40
2022-10-05T15:28:12.934Z,19.20
2022-10-05T15:30:53.898Z,19.30
2022-10-05T15:33:34.502Z,19.10
2022-10-05T15:36:15.676Z,18.90
2022-10-05T15:39:00.454Z,19.00
2022-10-05T15:42:02.309Z,18.80
2022-10-05T15:44:52.284Z,18.70
2022-10-05T15:47:45.412Z,18.50
2022-10-05T15:50:33.752Z,18.30
2022-10-05T15:53:18.733Z,18.40
2022-10-05T15:55:56.443Z,18.20
2022-10-05T15:58:48.311Z,18.00
2022-10-05T16:01:44.859Z,18.10
2022-10-05T16:04:31.591Z,17.90
2022-10-05T16:07:31.772Z,17.90
2022-10-05T16:10:14.136Z,17.80
2022-10-05T16:12:54.999Z,18.00
2022-10-05T16:15:42.889Z,17.80
2022-10-05T16:18:47.969Z,17.80
2022-10-05T16:21:31.900Z,17.80
2022-10-05T16:24:38.425Z,17.80
2022-10-05T16:31:13.445Z,17.70
2022-10-05T16:33:57.449Z,17.70
2022-10-05T16:36:44.751Z,17.70
2022-10-05T16:39:48.947Z,17.70
2022-10-05T16:42:34.777Z,17.70
2022-10-05T16:45:27.626Z,17.60
2022-10-05T16:48:20.291Z,17.50
2022-10-05T16:51:05.035Z,17.20
2022-10-05T16:53:43.063Z,17.10
2022-10-05T16:56:27.575Z,16.90
2022-10-05T16:59:11.266Z,16.60
2022-10-05T17:01:57.648Z,16.50
2022-10-05T17:04:41.843Z,16.30
2022-10-05T17:07:35.058Z,16.10
2022-10-05T17:10:30.284Z,15.80
2022-10-05T17:13:07.367Z,15.60
2022-10-05T17:15:51.196Z,15.40
2022-10-05T17:18:49.359Z,15.30
2022-10-05T17:21:31.051Z,15.20
2022-10-05T17:24:20.328Z,15.00
2022-10-05T17:27:02.590Z,14.90
2022-10-05T17:29:48.277Z,14.80
2022-10-05T17:32:56.376Z,14.70
2022-10-05T17:35:51.942Z,14.50
2022-10-05T17:38:47.083Z,14.40
2022-10-05T17:41:26.247Z,14.30
2022-10-05T17:44:33.744Z,14.10
2022-10-05T17:47:57.542Z,13.90
2022-10-05T17:50:56.583Z,13.80
2022-10-05T17:53:58.069Z,13.70
2022-10-05T17:56:33.822Z,13.60
2022-10-05T17:59:12.969Z,13.50
2022-10-05T18:02:17.101Z,13.50
2022-10-05T18:05:04.137Z,13.50
2022-10-05T18:07:50.381Z,13.40
2022-10-05T18:10:29.029Z,13.30
2022-10-05T18:13:36.016Z,13.30
2022-10-05T18:16:10.995Z,13.20
2022-10-05T18:18:59.980Z,13.10
2022-10-05T18:21:37.711Z,13.10
2022-10-05T18:24:28.097Z,13.10
2022-10-05T18:27:30.760Z,12.90
2022-10-05T18:30:19.664Z,12.90
2022-10-05T18:33:21.153Z,12.80
2022-10-05T18:36:04.712Z,12.80
2022-10-05T18:38:46.112Z,12.70
2022-10-05T18:41:25.213Z,12.80
2022-10-05T18:44:08.684Z,12.60
2022-10-05T18:46:48.440Z,12.50
2022-10-05T18:49:48.391Z,12.50
2022-10-05T18:52:31.071Z,12.50
2022-10-05T18:55:15.505Z,12.50
2022-10-05T18:57:59.646Z,12.40
2022-10-05T19:00:51.543Z,12.40
2022-10-05T19:03:43.189Z,12.20
2022-10-05T19:06:23.414Z,12.40
2022-10-05T19:09:08.357Z,12.10
2022-10-05T19:11:51.674Z,12.20
2022-10-05T19:14:50.691Z,12.00
2022-10-05T19:17:29.881Z,11.90
2022-10-05T19:20:17.643Z,11.90
2022-10-05T19:23:09.380Z,12.00
2022-10-05T19:25:48.416Z,11.80
2022-10-05T19:28:29.144Z,11.80
2022-10-05T19:31:17.611Z,11.70
2022-10-05T19:34:07.506Z,11.70
2022-10-05T19:36:51.145Z,11.70
2022-10-05T19:39:42.192Z,11.80
2022-10-05T19:42:45.189Z,11.70
2022-10-05T19:45:23.503Z,11.60
2022-10-05T19:48:08.609Z,11.50
2022-10-05T19:50:54.827Z,11.50
2022-10-05T19:53:31.736Z,11.30
2022-10-05T19:56:20.208Z,11.40
2022-10-05T19:58:57.497Z,11.30
2022-10-05T20:01:34.149Z,11.40
2022-10-05T20:04:13.080Z,11.20
2022-10-05T20:06:50.723Z,11.30
2022-10-05T20:09:25.267Z,11.20
2022-10-05T20:11:59.395Z,11.30
2022-10-05T20:14:59.330Z,11.20
2022-10-05T20:17:47.486Z,11.10
2022-10-05T20:20:33.120Z,11.10
2022-10-05T20:23:25.046Z,11.00
2022-10-05T20:26:18.466Z,11.00
2022-10-05T20:28:52.719Z,10.60
2022-10-05T20:31:32.304Z,10.70
2022-10-05T20:34:06.839Z,10.80
2022-10-05T20:36:43.275Z,10.90
2022-10-05T20:39:21.391Z,10.80
2022-10-05T20:41:55.639Z,10.80
2022-10-05T20:44:37.801Z,10.60
2022-10-05T20:47:13.803Z,10.70
2022-10-05T20:49:47.963Z,10.50
2022-10-05T20:52:24.998Z,10.60
2022-10-05T20:55:00.698Z,10.50
2022-10-05T20:57:41.523Z,10.50
2022-10-05T21:00:15.733Z,10.60
2022-10-05T21:02:49.831Z,10.60
2022-10-05T21:05:23.907Z,10.50
2022-10-05T21:07:57.976Z,10.40
2022-10-05T21:10:33.639Z,10.40
2022-10-05T21:13:07.767Z,10.50
2022-10-05T21:15:41.920Z,10.40
2022-10-05T21:18:20.323Z,10.40
2022-10-05T21:20:59.846Z,10.20
2022-10-05T21:23:37.411Z,10.30
2022-10-05T21:26:15.055Z,10.30
2022-10-05T21:28:55.159Z,10.30
2022-10-05T21:31:29.852Z,10.30
2022-10-05T21:34:04.318Z,10.20
2022-10-05T21:36:43.107Z,10.30
2022-10-05T21:39:17.311Z,10.20
2022-10-05T21:41:52.895Z,10.10
2022-10-05T21:44:27.213Z,10.00
2022-10-05T21:47:13.331Z,10.20
2022-10-05T21:49:47.493Z,10.00
2022-10-05T21:52:21.887Z,10.00
2022-10-05T21:54:56.667Z,10.00
2022-10-05T21:57:32.654Z,10.00
2022-10-05T22:00:10.559Z,10.00
2022-10-05T22:02:50.377Z,10.00
2022-10-05T22:05:24.501Z,9.80
2022-10-05T22:07:59.108Z,9.90
2022-10-05T22:10:37.215Z,9.60
2022-10-05T22:13:14.538Z,9.70
2022-10-05T22:15:48.928Z,9.70
2022-10-05T22:18:24.706Z,9.60
2022-10-05T22:20:58.973Z,9.70
2022-10-05T22:23:33.795Z,9.70
2022-10-05T22:26:14.651Z,9.60
2022-10-05T22:28:55.117Z,9.60
2022-10-05T22:31:29.561Z,9.70
2022-10-05T22:34:03.794Z,9.70
2022-10-05T22:36:38.508Z,9.60
2022-10-05T22:39:12.674Z,9.60
2022-10-05T22:41:46.935Z,9.60
2022-10-05T22:44:26.919Z,9.60
2022-10-05T22:47:00.997Z,9.40
2022-10-05T22:49:35.088Z,9.40
2022-10-05T22:52:09.327Z,9.60
2022-10-05T22:54:49.270Z,9.40
2022-10-05T22:57:23.512Z,9.30
2022-10-05T22:59:59.196Z,9.30
2022-10-05T23:02:37.702Z,9.20
2022-10-05T23:05:14.770Z,9.20
2022-10-05T23:07:49.025Z,9.30
2022-10-05T23:10:23.518Z,9.40
2022-10-05T23:13:00.984Z,9.10
2022-10-05T23:15:37.563Z,9.50
2022-10-05T23:18:12.828Z,9.00
2022-10-05T23:20:55.022Z,9.30
2022-10-05T23:23:29.294Z,9.20
2022-10-05T23:26:04.316Z,9.20
2022-10-05T23:28:47.315Z,9.30
2022-10-05T23:31:33.650Z,9.30
2022-10-05T23:34:13.157Z,9.30
2022-10-05T23:36:47.378Z,9.00
2022-10-05T23:39:25.213Z,9.00
2022-10-05T23:42:00.721Z,9.20
2022-10-05T23:44:44.218Z,9.10
2022-10-05T23:47:21.783Z,9.00
2022-10-05T23:49:56.435Z,9.10
2022-10-05T23:52:31.216Z,9.00
2022-10-05T23:55:08.324Z,9.20
2022-10-05T23:57:43.245Z,9.10
